createdAt,value
2018-08-10T00:41:14.638Z,5.50
2018-08-10T00:48:57.708Z,6.80
2018-08-10T00:54:05.641Z,5.40
2018-08-10T05:04:23.584Z,6.10
2018-08-10T05:06:56.221Z,5.77
2018-08-10T05:09:28.720Z,7.00
2018-08-10T05:12:01.332Z,5.83
2018-08-10T05:14:33.830Z,6.30
2018-08-10T05:17:06.742Z,5.90
2018-08-10T05:19:39.794Z,5.60
2018-08-10T05:22:12.571Z,6.13
2018-08-10T05:24:44.750Z,6.70
2018-08-10T05:27:17.793Z,6.70
2018-08-10T05:29:50.247Z,6.70
2018-08-10T05:32:22.843Z,7.13
2018-08-10T05:34:55.241Z,7.50
2018-08-10T05:37:27.654Z,6.40
2018-08-10T05:39:59.967Z,6.40
2018-08-10T05:42:32.666Z,6.23
2018-08-10T05:45:05.972Z,6.23
2018-08-10T05:47:38.689Z,7.10
2018-08-10T05:50:11.025Z,6.53
2018-08-10T05:52:43.602Z,6.90
2018-08-10T05:55:15.992Z,6.97
2018-08-10T05:57:48.272Z,6.67
2018-08-10T06:00:20.381Z,8.13
2018-08-10T06:02:52.619Z,7.23
2018-08-10T06:05:25.484Z,7.20
2018-08-10T06:07:58.217Z,7.80
2018-08-10T06:10:30.531Z,7.37
2018-08-10T06:13:02.754Z,7.40
2018-08-10T06:15:34.931Z,7.80
2018-08-10T06:18:07.313Z,7.60
2018-08-10T06:20:39.481Z,8.15
2018-08-10T06:23:11.805Z,7.60
2018-08-10T06:25:44.021Z,8.07
2018-08-10T06:28:16.480Z,9.07
2018-08-10T06:30:48.550Z,7.77
2018-08-10T06:33:20.745Z,7.80
2018-08-10T06:35:53.061Z,8.63
2018-08-10T06:38:25.382Z,7.80
2018-08-10T06:40:57.570Z,6.97
2018-08-10T06:43:29.694Z,7.13
2018-08-10T06:46:02.199Z,7.90
2018-08-10T06:48:35.421Z,7.20
2018-08-10T06:51:07.839Z,7.47
2018-08-10T06:53:40.247Z,7.87
2018-08-10T06:56:12.679Z,7.53
2018-08-10T06:58:44.861Z,7.60
2018-08-10T07:01:17.217Z,7.53
2018-08-10T07:03:49.784Z,8.43
2018-08-10T07:06:22.015Z,6.80
2018-08-10T07:08:54.296Z,7.23
2018-08-10T07:11:26.745Z,7.70
2018-08-10T07:13:59.032Z,7.70
2018-08-10T07:16:31.130Z,7.25
2018-08-10T07:19:04.983Z,6.60
2018-08-10T07:21:37.464Z,7.90
2018-08-10T07:24:10.046Z,7.70
2018-08-10T07:26:42.202Z,7.43
2018-08-10T07:29:14.522Z,7.45
2018-08-10T07:34:17.245Z,8.40
2018-08-10T07:39:20.313Z,7.15
2018-08-10T07:41:52.573Z,8.00
2018-08-10T07:44:25.093Z,7.60
2018-08-10T07:46:57.646Z,7.60
2018-08-10T07:49:30.272Z,7.30
2018-08-10T07:52:02.727Z,7.90
2018-08-10T07:59:36.489Z,8.20
2018-08-10T09:24:46.736Z,8.70
2018-08-10T09:27:19.169Z,8.20
2018-08-10T09:29:51.375Z,8.00
2018-08-10T09:47:26.811Z,8.85
2018-08-10T09:49:59.362Z,8.50
2018-08-10T09:52:31.697Z,8.50
2018-08-10T09:55:36.906Z,8.53
2018-08-10T09:58:13.212Z,7.60
2018-08-10T10:00:50.173Z,9.20
2018-08-10T10:03:23.584Z,9.30
2018-08-10T10:05:57.453Z,9.07
2018-08-10T10:08:29.817Z,10.00
2018-08-10T10:11:02.119Z,10.57
2018-08-10T10:13:34.438Z,9.63
2018-08-10T10:16:06.589Z,9.63
2018-08-10T10:18:39.233Z,9.90
2018-08-10T10:31:13.984Z,9.70
2018-08-10T11:21:27.146Z,9.27
2018-08-10T11:23:59.397Z,10.00
2018-08-10T11:26:31.788Z,9.70
2018-08-10T11:29:03.943Z,9.87
2018-08-10T11:31:36.036Z,10.67
2018-08-10T11:34:08.493Z,11.67
2018-08-10T11:36:40.783Z,11.10
2018-08-10T11:39:14.478Z,16.63
2018-08-10T11:41:46.392Z,12.37
2018-08-10T11:44:19.788Z,10.40
2018-08-10T11:46:51.789Z,11.17
2018-08-10T11:49:23.893Z,12.33
2018-08-10T11:51:56.537Z,11.53
2018-08-10T11:54:28.921Z,13.13
2018-08-10T11:57:00.904Z,12.07
2018-08-10T11:59:33.178Z,12.23
2018-08-10T12:02:06.472Z,13.50
2018-08-10T12:04:38.841Z,14.87
2018-08-10T12:07:10.881Z,14.27
2018-08-10T12:09:43.283Z,13.33
2018-08-10T12:12:15.214Z,11.50
2018-08-10T12:14:47.564Z,11.77
2018-08-10T12:17:19.734Z,12.23
2018-08-10T12:19:51.957Z,14.37
2018-08-10T12:22:23.877Z,14.40
2018-08-10T12:24:56.007Z,13.53
2018-08-10T12:27:28.063Z,12.67
2018-08-10T12:30:00.785Z,13.27
2018-08-10T12:32:32.921Z,14.63
2018-08-10T12:35:05.441Z,14.87
2018-08-10T12:37:37.777Z,15.03
2018-08-10T12:40:10.104Z,14.47
2018-08-10T12:42:42.500Z,13.10
2018-08-10T12:45:14.926Z,12.93
2018-08-10T12:47:47.333Z,11.47
2018-08-10T12:50:19.582Z,10.90
2018-08-10T12:52:51.958Z,11.67
2018-08-10T12:55:25.119Z,11.53
2018-08-10T12:57:57.251Z,13.17
2018-08-10T13:00:29.437Z,36.57
2018-08-10T13:03:02.104Z,11.43
2018-08-10T13:05:34.316Z,11.90
2018-08-10T13:08:06.528Z,13.57
2018-08-10T13:10:38.908Z,12.50
2018-08-10T13:13:11.275Z,10.70
2018-08-10T13:15:43.514Z,11.60
2018-08-10T13:18:15.781Z,11.27
2018-08-10T13:20:48.294Z,11.40
2018-08-10T13:23:20.188Z,10.80
2018-08-10T13:35:55.453Z,12.10
2018-08-10T17:20:48.646Z,11.50
2018-08-10T17:23:20.875Z,12.03
2018-08-10T18:06:25.043Z,10.78
2018-08-10T20:23:37.691Z,12.00
